Latest Weather Observations for Warruwi

IDD60801

Issued at 11:31 pm CST Tuesday 12 December 2017 (issued every 30 minutes, with the page automatically refreshed every 10 minutes)

About weather observations | Map of weather stations | Latest weather observations for NT | Other Formats
Station Details ID: 014401 Name: WARRUWI AIRPORT Lat: -11.65 Lon: 133.38 Height: 19.2 m
Data from the previous 72 hours. | See also: Recent months at Warruwi
Date/Time
CST
Temp
°C
App
Temp
°C
Dew
Point
°C
Rel
Hum
%
Delta-T
°C
Wind Press
QNH
hPa
Press
MSL
hPa
Rain since
9am
mm
Dir  Spd
km/h
Gust
km/h
Spd
kts
Gust
kts
12/11:30pm 29.1 35.5 25.5 81 2.5 N 2 6 1 3 1009.2 1009.0 0.0
12/11:00pm 29.0 35.7 25.4 81 2.5 CALM 0 0 0 0 1009.6 1009.4 0.0
12/10:30pm 28.9 35.7 25.5 82 2.4 CALM 0 0 0 0 1009.3 1009.1 0.0
12/10:00pm 28.5 34.3 25.1 82 2.4 NNE 4 6 2 3 1008.8 1008.6 0.0
12/09:30pm 28.6 34.8 24.6 79 2.8 CALM 0 0 0 0 1008.8 1008.6 0.0
12/09:00pm 29.1 35.5 24.9 78 2.9 CALM 0 0 0 0 1008.7 1008.5 0.0
12/08:30pm 28.9 34.5 24.2 76 3.3 N 2 4 1 2 1008.3 1008.1 0.0
12/08:00pm 29.1 34.6 24.0 74 3.5 NNE 2 4 1 2 1007.8 1007.6 0.0
12/07:30pm 29.5 34.8 23.7 71 4.0 N 2 4 1 2 1007.8 1007.6 0.0
12/07:00pm 30.3 34.6 23.7 68 4.6 W 7 11 4 6 1007.9 1007.7 0.0
12/06:30pm 30.6 34.4 23.5 66 4.9 W 9 17 5 9 1007.7 1007.5 0.0
12/06:00pm 31.9 36.7 24.2 63 5.4 NW 6 13 3 7 1007.5 1007.3 0.0
12/05:30pm 31.3 36.0 23.9 64 5.2 N 6 7 3 4 1007.1 1006.9 0.0
12/05:00pm 31.4 36.0 23.8 64 5.3 N 6 13 3 7 1006.6 1006.4 0.0
12/04:30pm 31.6 35.8 23.4 61 5.7 N 7 13 4 7 1006.7 1006.5 0.0
12/04:00pm 32.2 36.1 22.9 58 6.4 NNW 7 13 4 7 1006.6 1006.4 0.0
12/03:30pm 35.1 39.3 23.4 50 8.2 N 7 17 4 9 1006.3 1006.1 0.0
12/03:00pm 35.0 38.0 22.0 46 8.9 N 9 20 5 11 1006.8 1006.6 0.0
12/02:30pm 34.7 37.2 21.7 46 8.9 N 11 17 6 9 1007.3 1007.1 0.0
12/02:00pm 35.0 37.7 21.3 45 9.3 N 9 15 5 8 1007.7 1007.5 0.0
12/01:30pm 35.2 38.7 21.8 45 9.2 WNW 6 11 3 6 1008.3 1008.1 0.0
12/01:00pm 34.2 37.0 20.9 45 9.0 NW 7 13 4 7 1008.7 1008.5 0.0
12/12:30pm 34.0 36.2 21.1 47 8.7 WNW 11 15 6 8 1009.2 1009.0 0.0
12/12:00pm 33.9 36.5 22.0 49 8.1 WNW 11 15 6 8 1009.5 1009.3 0.0
12/11:30am 33.4 36.0 21.9 51 7.8 WNW 11 15 6 8 1010.0 1009.8 0.0
12/11:00am 33.8 37.1 22.6 52 7.7 W 9 13 5 7 1010.7 1010.5 0.0
12/10:30am 32.6 36.4 22.7 56 6.8 WNW 7 11 4 6 1011.0 1010.8 0.0
12/10:00am 32.1 36.6 23.9 62 5.7 WSW 7 15 4 8 1011.0 1010.8 0.0
12/09:30am 31.5 35.4 23.6 63 5.5 W 9 13 5 7 1011.2 1011.0 0.0
12/09:00am 31.4 35.7 24.3 66 5.0 WSW 9 13 5 7 1011.2 1011.0 0.0
12/08:30am 30.5 35.3 24.4 70 4.3 WSW 7 13 4 7 1010.9 1010.7 0.0
12/08:00am 29.6 34.0 24.5 74 3.6 SW 9 13 5 7 1010.8 1010.6 0.0
12/07:30am 29.2 34.3 24.7 77 3.1 SW 6 9 3 5 1010.5 1010.3 0.0
12/07:00am 28.4 33.5 24.6 80 2.6 SW 6 11 3 6 1010.4 1010.2 0.0
12/06:30am 27.9 32.7 24.5 82 2.4 SW 7 9 4 5 1009.9 1009.7 0.0
12/06:00am 27.8 32.7 24.4 82 2.4 SW 6 9 3 5 1009.6 1009.4 0.0
12/05:30am 27.9 32.3 24.5 82 2.4 WSW 9 13 5 7 1009.3 1009.1 0.0
12/05:00am 28.4 33.7 25.0 82 2.4 SW 6 9 3 5 1009.0 1008.8 0.0
12/04:30am 29.1 34.2 25.5 81 2.5 WSW 9 17 5 9 1008.8 1008.6 0.0
12/04:00am 29.0 34.6 25.4 81 2.5 WNW 6 11 3 6 1008.6 1008.4 0.0
12/03:30am 29.3 34.4 25.5 80 2.7 WNW 9 13 5 7 1008.6 1008.4 0.0
12/03:00am 29.2 34.7 25.6 81 2.5 WNW 7 13 4 7 1008.6 1008.4 0.0
12/02:30am 29.3 34.4 25.5 80 2.7 WNW 9 13 5 7 1008.9 1008.7 0.0
12/02:00am 29.4 35.3 25.4 79 2.8 WNW 4 7 2 4 1009.1 1008.9 0.0
12/01:30am 29.4 35.3 25.4 79 2.8 WNW 4 6 2 3 1009.6 1009.4 0.0
12/01:00am 29.4 34.9 24.7 76 3.3 NW 4 6 2 3 1010.4 1010.2 0.0
12/12:30am 29.4 35.3 24.7 76 3.3 NNW 2 6 1 3 1010.2 1010.0 0.0
12/12:00am 29.5 35.1 24.8 76 3.3 NNW 4 6 2 3 1010.5 1010.3 0.0
 
Date/Time
CST
Temp
°C
App
Temp
°C
Dew
Point
°C
Rel
Hum
%
Delta-T
°C
Wind Press
QNH
hPa
Press
MSL
hPa
Rain since
9am
mm
Dir  Spd
km/h
Gust
km/h
Spd
kts
Gust
kts
11/11:30pm 29.6 35.2 24.9 76 3.3 NW 4 7 2 4 1010.6 1010.4 0.0
11/11:00pm 29.7 35.4 25.0 76 3.3 NNW 4 6 2 3 1010.6 1010.4 0.0
11/10:30pm 29.9 35.7 25.2 76 3.3 NW 4 7 2 4 1010.9 1010.7 0.0
11/10:00pm 29.9 35.6 25.0 75 3.4 NW 4 9 2 5 1010.6 1010.4 0.0
11/09:30pm 29.9 35.6 25.0 75 3.4 NNW 4 9 2 5 1010.3 1010.1 0.0
11/09:00pm 30.1 35.7 24.9 73 3.7 NNW 4 9 2 5 1009.8 1009.6 0.0
11/08:30pm 30.1 35.7 24.9 73 3.7 NNW 4 7 2 4 1009.3 1009.1 0.0
11/08:00pm 30.4 35.6 24.8 72 3.9 NNW 6 9 3 5 1009.0 1008.8 0.0
11/07:30pm 30.5 35.8 24.9 72 3.9 NNW 6 11 3 6 1008.7 1008.5 0.0
11/07:00pm 30.5 35.8 24.9 72 3.9 NNW 6 11 3 6 1008.5 1008.3 0.0
11/06:30pm 30.7 36.1 25.1 72 4.0 N 6 11 3 6 1007.7 1007.5 0.0
11/06:00pm 30.8 36.4 24.9 71 4.2 NNW 4 11 2 6 1007.8 1007.6 0.0
11/05:30pm 31.1 36.8 25.0 70 4.3 N 4 9 2 5 1007.7 1007.5 0.0
11/05:00pm 31.4 36.2 24.5 67 4.8 N 7 11 4 6 1007.2 1007.0 0.0
11/04:30pm 32.9 37.6 24.9 63 5.7 N 9 15 5 8 1006.9 1006.7 0.0
11/04:00pm 33.3 37.9 24.7 60 6.1 N 9 19 5 10 1006.8 1006.6 0.0
11/03:30pm 33.4 37.7 24.3 59 6.4 NNW 9 17 5 9 1007.2 1007.0 0.0
11/03:00pm 33.0 37.1 23.9 59 6.4 N 9 17 5 9 1007.4 1007.2 0.0
11/02:30pm 33.6 38.0 24.5 59 6.4 N 9 15 5 8 1007.8 1007.6 0.0
11/02:00pm 33.9 38.2 24.2 57 6.8 N 9 13 5 7 1008.2 1008.0 0.0
11/01:30pm 33.7 38.3 24.8 59 6.3 N 9 19 5 10 1008.6 1008.4 0.0
11/01:00pm 33.4 37.4 23.1 54 7.1 NNW 7 13 4 7 1009.1 1008.9 0.0
11/12:30pm 32.3 36.7 23.8 61 5.9 NW 7 15 4 8 1010.0 1009.8 0.0
11/12:00pm 32.7 37.0 24.2 61 6.0 WNW 9 17 5 9 1010.3 1010.1 0.0
11/11:30am 32.2 36.3 24.5 64 5.4 WNW 11 19 6 10 1010.8 1010.6 0.0
11/11:00am 32.1 36.4 24.9 65 5.1 WNW 11 20 6 11 1011.4 1011.2 0.0
11/10:30am 31.2 35.3 24.6 68 4.6 W 11 17 6 9 1011.8 1011.6 0.0
11/10:00am 32.6 37.4 25.7 67 4.9 W 11 17 6 9 1012.1 1011.9 0.0
11/09:30am 32.0 36.2 25.3 67 4.7 WSW 13 19 7 10 1012.2 1012.0 0.0
11/09:00am 30.7 35.5 25.1 72 3.9 WSW 9 13 5 7 1012.1 1011.9 0.0
11/08:30am 30.7 35.9 24.8 71 4.1 WSW 6 9 3 5 1011.9 1011.7 0.0
11/08:00am 29.9 35.3 24.5 73 3.8 WSW 4 6 2 3 1011.7 1011.5 0.0
11/07:30am 29.6 34.7 24.7 75 3.4 SSW 6 7 3 4 1011.6 1011.4 0.0
11/07:00am 28.7 34.5 25.1 81 2.5 S 4 7 2 4 1011.3 1011.1 0.0
11/06:30am 28.1 33.7 24.9 83 2.2 SSW 4 9 2 5 1010.9 1010.7 0.0
11/06:00am 27.6 33.9 24.8 85 2.0 CALM 0 0 0 0 1010.5 1010.3 0.0
11/05:30am 27.6 33.9 24.8 85 2.0 CALM 0 0 0 0 1010.1 1009.9 0.0
11/05:00am 27.7 34.1 24.9 85 2.0 CALM 0 0 0 0 1009.9 1009.7 0.0
11/04:30am 27.8 34.1 24.8 84 2.1 CALM 0 0 0 0 1009.6 1009.4 0.0
11/04:00am 27.9 34.2 24.7 83 2.2 CALM 0 0 0 0 1009.7 1009.5 0.0
11/03:30am 28.0 34.2 24.6 82 2.4 CALM 0 0 0 0 1009.5 1009.3 0.0
11/03:00am 28.4 34.6 24.6 80 2.7 CALM 0 0 0 0 1009.5 1009.3 0.0
11/02:30am 28.7 34.8 24.5 78 2.9 CALM 0 4 0 2 1009.4 1009.2 0.0
11/02:00am 28.9 34.5 24.2 76 3.3 N 2 6 1 3 1009.6 1009.4 0.0
11/01:30am 29.1 34.7 24.2 75 3.4 N 2 6 1 3 1009.8 1009.6 0.0
11/01:00am 28.9 34.0 24.0 75 3.4 NNE 4 6 2 3 1009.9 1009.7 0.0
11/12:30am 29.0 34.0 23.9 74 3.5 NNE 4 6 2 3 1010.1 1009.9 0.0
11/12:00am 29.1 34.1 23.8 73 3.7 N 4 6 2 3 1010.4 1010.2 0.0
 
Date/Time
CST
Temp
°C
App
Temp
°C
Dew
Point
°C
Rel
Hum
%
Delta-T
°C
Wind Press
QNH
hPa
Press
MSL
hPa
Rain since
9am
mm
Dir  Spd
km/h
Gust
km/h
Spd
kts
Gust
kts
10/11:30pm 29.3 34.0 24.0 73 3.7 NNE 6 11 3 6 1010.5 1010.3 0.0
10/11:00pm 29.3 33.8 23.7 72 3.9 NNE 6 9 3 5 1010.5 1010.3 0.0
10/10:30pm 29.3 34.2 23.7 72 3.9 NNE 4 9 2 5 1010.7 1010.5 0.0
10/10:00pm 29.1 33.8 23.3 71 4.0 NNE 4 6 2 3 1010.4 1010.2 0.0
10/09:30pm 29.3 34.0 23.3 70 4.1 NNE 4 7 2 4 1010.2 1010.0 0.0
10/09:00pm 29.2 33.4 23.2 70 4.1 NNE 6 9 3 5 1009.9 1009.7 0.0
10/08:30pm 29.2 34.2 23.2 70 4.1 N 2 4 1 2 1009.8 1009.6 0.0
10/08:00pm 29.4 33.7 22.6 67 4.6 N 4 6 2 3 1009.6 1009.4 0.0
10/07:30pm 29.6 33.7 22.3 65 5.0 NNE 4 7 2 4 1009.4 1009.2 0.0
10/07:00pm 30.1 34.2 22.3 63 5.3 NNE 4 6 2 3 1009.0 1008.8 0.0
10/06:30pm 30.9 34.2 21.9 58 6.1 NE 7 17 4 9 1008.4 1008.2 0.0
10/06:00pm 31.6 34.8 21.7 55 6.7 NNE 7 13 4 7 1008.1 1007.9 0.0
10/05:30pm 32.2 35.2 22.0 55 6.9 NE 9 13 5 7 1008.0 1007.8 0.0
10/05:00pm 32.7 35.3 21.2 50 7.7 NE 9 15 5 8 1008.1 1007.9 0.0
10/04:30pm 33.0 36.0 22.7 54 7.1 E 11 17 6 9 1008.4 1008.2 0.0
10/04:00pm 32.8 35.2 22.3 54 7.2 E 13 17 7 9 1008.5 1008.3 0.0
10/03:30pm 33.2 36.5 23.2 55 6.9 ESE 11 15 6 8 1008.7 1008.5 0.0
10/03:00pm 32.7 35.4 22.8 56 6.8 E 13 17 7 9 1009.0 1008.8 0.0
10/02:30pm 33.0 36.1 23.6 57 6.5 E 13 20 7 11 1009.4 1009.2 0.0
10/02:00pm 32.4 35.8 23.4 59 6.2 E 11 19 6 10 1009.9 1009.7 0.0
10/01:30pm 32.5 35.7 23.7 59 6.1 E 13 19 7 10 1009.9 1009.7 0.0
10/01:00pm 32.7 36.6 24.2 61 5.9 E 11 19 6 10 1010.0 1009.8 0.0
10/12:30pm 32.7 35.8 23.6 58 6.3 ESE 13 20 7 11 1010.2 1010.0 0.0
10/12:00pm 32.3 35.8 23.5 59 6.1 E 11 17 6 9 1010.5 1010.3 0.0
10/11:30am 32.4 35.7 23.9 61 5.9 ESE 13 19 7 10 1010.7 1010.5 0.0
10/11:00am 32.3 35.9 23.8 61 5.9 E 11 17 6 9 1010.8 1010.6 0.0
10/10:30am 32.3 35.6 23.8 61 5.9 E 13 19 7 10 1011.0 1010.8 0.0
10/10:00am 31.9 35.3 23.4 60 5.9 E 11 17 6 9 1011.0 1010.8 0.0
10/09:30am 31.6 35.2 23.7 63 5.5 E 11 15 6 8 1011.0 1010.8 0.0
10/09:00am 31.6 36.1 24.0 64 5.3 E 7 15 4 8 1010.9 1010.7 0.0
10/08:30am 30.7 35.8 24.6 70 4.3 E 6 13 3 7 1010.6 1010.4 0.0
10/08:00am 28.9 35.5 25.3 81 2.5 CALM 0 0 0 0 1010.2 1010.0 0.0
10/07:30am 28.2 34.8 25.2 84 2.1 CALM 0 0 0 0 1010.0 1009.8 0.0
10/07:00am 27.6 34.2 25.2 87 1.7 CALM 0 6 0 3 1009.9 1009.7 0.0
10/06:30am 26.8 33.1 24.8 89 1.4 CALM 0 0 0 0 1009.8 1009.6 0.0
10/06:00am 27.1 33.4 24.7 87 1.7 CALM 0 2 0 1 1009.5 1009.3 0.0
10/05:30am 27.3 32.6 24.9 87 1.7 S 6 7 3 4 1009.1 1008.9 0.0
10/05:00am 27.2 32.6 25.2 89 1.4 SW 6 7 3 4 1008.8 1008.6 0.0
10/04:30am 26.4 32.5 24.4 89 1.4 CALM 0 0 0 0 1008.5 1008.3 0.0
10/04:00am 26.4 32.5 24.4 89 1.4 CALM 0 0 0 0 1008.5 1008.3 0.0
10/03:30am 26.5 32.3 24.5 89 1.4 NE 2 4 1 2 1008.5 1008.3 0.0
10/03:00am 26.6 32.8 24.6 89 1.4 CALM 0 2 0 1 1008.8 1008.6 0.0
10/02:30am 26.5 32.6 24.5 89 1.4 CALM 0 0 0 0 1008.9 1008.7 0.0
10/02:00am 26.8 32.9 24.5 87 1.6 CALM 0 0 0 0 1009.0 1008.8 0.0
10/01:30am 26.9 33.0 24.5 87 1.7 CALM 0 0 0 0 1009.2 1009.0 0.0
10/01:00am 27.1 33.3 24.6 86 1.7 CALM 0 0 0 0 1009.6 1009.4 0.0
10/12:30am 27.2 33.3 24.5 85 1.9 CALM 0 0 0 0 1009.7 1009.5 0.0
10/12:00am 27.5 33.6 24.4 83 2.2 CALM 0 0 0 0 1010.1 1009.9 0.0

Other Formats:

Comma delimited format used in spreadsheet applications
http://www.bom.gov.au/fwo/IDD60801/IDD60801.94139.axf

JavaScript Object Notation format (JSON) in row-major order
http://www.bom.gov.au/fwo/IDD60801/IDD60801.94139.json